createdAt,value
2022-10-13T00:00:57.235Z,101963.88
2022-10-13T00:03:23.785Z,101971.44
2022-10-13T00:05:51.491Z,101961.56
2022-10-13T00:08:20.788Z,101955.88
2022-10-13T00:10:49.431Z,101945.25
2022-10-13T00:13:19.723Z,101943.31
2022-10-13T00:15:47.412Z,101941.00
2022-10-13T00:18:14.979Z,101943.25
2022-10-13T00:20:49.485Z,101950.06
2022-10-13T00:23:17.463Z,101941.72
2022-10-13T00:25:45.946Z,101950.03
2022-10-13T00:28:12.920Z,101942.81
2022-10-13T00:30:40.283Z,101945.06
2022-10-13T00:33:07.400Z,101947.34
2022-10-13T00:35:34.188Z,101940.13
2022-10-13T00:38:00.667Z,101940.13
2022-10-13T00:40:30.761Z,101940.88
2022-10-13T00:42:57.182Z,101938.63
2022-10-13T00:45:32.127Z,101937.47
2022-10-13T00:48:01.753Z,101936.72
2022-10-13T00:50:35.568Z,101941.63
2022-10-13T00:53:02.715Z,101940.88
2022-10-13T00:55:36.854Z,101937.06
2022-10-13T00:58:06.256Z,101938.56
2022-10-13T01:00:34.311Z,101932.09
2022-10-13T01:03:02.822Z,101931.72
2022-10-13T01:05:30.162Z,101939.28
2022-10-13T01:07:57.824Z,101939.28
2022-10-13T01:10:36.221Z,101935.06
2022-10-13T01:13:23.550Z,101935.44
2022-10-13T01:16:19.512Z,101932.34
2022-10-13T01:19:08.366Z,101933.84
2022-10-13T01:22:02.318Z,101933.06
2022-10-13T01:24:32.947Z,101939.13
2022-10-13T01:27:08.264Z,101930.00
2022-10-13T01:29:58.505Z,101928.09
2022-10-13T01:32:53.454Z,101934.50
2022-10-13T01:35:56.955Z,101933.75
2022-10-13T01:38:35.223Z,101928.78
2022-10-13T01:41:13.321Z,101926.50
2022-10-13T01:44:12.308Z,101930.66
2022-10-13T01:46:43.253Z,101931.00
2022-10-13T01:49:12.142Z,101927.94
2022-10-13T01:51:41.692Z,101915.00
2022-10-13T01:54:08.252Z,101921.81
2022-10-13T01:56:34.622Z,101913.06
2022-10-13T01:59:08.262Z,101913.81
2022-10-13T02:02:18.528Z,101920.22
2022-10-13T02:05:04.375Z,101911.50
2022-10-13T02:07:46.469Z,101901.63
2022-10-13T02:10:20.555Z,101900.81
2022-10-13T02:12:54.889Z,101863.19
2022-10-13T02:15:53.155Z,101879.09
2022-10-13T02:18:25.780Z,101877.94
2022-10-13T02:20:53.316Z,101890.81
2022-10-13T02:23:20.019Z,101887.81
2022-10-13T02:25:48.397Z,101888.56
2022-10-13T02:28:15.828Z,101883.25
2022-10-13T02:30:44.665Z,101888.56
2022-10-13T02:33:12.874Z,101882.84
2022-10-13T02:35:40.355Z,101883.59
2022-10-13T02:38:07.056Z,101883.94
2022-10-13T02:40:33.630Z,101882.03
2022-10-13T02:43:00.032Z,101875.53
2022-10-13T02:45:26.477Z,101874.38
2022-10-13T02:47:54.794Z,101871.31
2022-10-13T02:50:21.191Z,101853.47
2022-10-13T02:52:50.281Z,101864.44
2022-10-13T02:55:16.770Z,101848.50
2022-10-13T02:57:45.383Z,101832.88
2022-10-13T03:00:12.534Z,101805.09
2022-10-13T03:02:38.963Z,101815.25
2022-10-13T03:05:05.532Z,101829.25
2022-10-13T03:07:31.941Z,101828.84
2022-10-13T03:09:58.329Z,101836.81
2022-10-13T03:12:24.817Z,101844.78
2022-10-13T03:14:51.191Z,101849.69
2022-10-13T03:17:17.787Z,101850.84
2022-10-13T03:19:44.280Z,101852.78
2022-10-13T03:22:15.297Z,101862.25
2022-10-13T03:24:42.321Z,101851.22
2022-10-13T03:27:08.806Z,101861.44
2022-10-13T03:29:35.210Z,101851.16
2022-10-13T03:32:01.809Z,101853.34
2022-10-13T03:34:28.191Z,101843.84
2022-10-13T03:36:54.884Z,101843.09
2022-10-13T03:39:22.081Z,101831.31
2022-10-13T03:41:48.448Z,101823.25
2022-10-13T03:44:14.835Z,101821.69
2022-10-13T03:46:41.298Z,101823.16
2022-10-13T03:49:07.699Z,101819.75
2022-10-13T03:51:34.267Z,101808.31
2022-10-13T03:54:00.659Z,101811.72
2022-10-13T03:56:27.315Z,101821.94
2022-10-13T03:58:58.885Z,101814.72
2022-10-13T04:01:29.419Z,101818.13
2022-10-13T04:03:57.248Z,101816.56
2022-10-13T04:06:24.743Z,101813.50
2022-10-13T04:08:51.634Z,101813.44
2022-10-13T04:11:18.657Z,101809.59
2022-10-13T04:13:50.519Z,101816.09
2022-10-13T04:16:25.554Z,101811.19
2022-10-13T04:18:59.000Z,101808.50
2022-10-13T04:21:26.602Z,101794.41
2022-10-13T04:23:58.124Z,101784.09
2022-10-13T04:26:26.275Z,101774.94
2022-10-13T04:28:53.838Z,101774.91
2022-10-13T04:31:24.140Z,101770.34
2022-10-13T04:33:51.505Z,101771.09
2022-10-13T04:36:18.832Z,101778.31
2022-10-13T04:38:46.527Z,101783.22
2022-10-13T04:41:14.486Z,101780.56
2022-10-13T04:43:41.251Z,101786.31
2022-10-13T04:46:14.702Z,101786.31
2022-10-13T04:48:41.467Z,101794.63
2022-10-13T04:51:11.748Z,101791.63
2022-10-13T04:53:38.413Z,101806.84
2022-10-13T04:56:13.225Z,101798.09
2022-10-13T04:58:41.187Z,101804.59
2022-10-13T05:01:12.031Z,101798.50
2022-10-13T05:03:38.480Z,101808.41
2022-10-13T05:06:05.055Z,101799.25
2022-10-13T05:08:33.107Z,101808.75
2022-10-13T05:11:01.716Z,101795.44
2022-10-13T05:13:29.796Z,101801.53
2022-10-13T05:15:58.817Z,101798.84
2022-10-13T05:18:25.196Z,101798.84
2022-10-13T05:20:51.647Z,101798.84
2022-10-13T05:23:18.963Z,101804.94
2022-10-13T05:25:45.361Z,101803.03
2022-10-13T05:28:14.480Z,101804.09
2022-10-13T05:30:40.988Z,101805.19
2022-10-13T05:33:07.362Z,101799.06
2022-10-13T05:35:33.770Z,101792.50
2022-10-13T05:38:00.151Z,101797.00
2022-10-13T05:40:26.540Z,101794.34
2022-10-13T05:42:59.626Z,101788.16
2022-10-13T05:45:29.588Z,101783.59
2022-10-13T05:47:56.106Z,101789.66
2022-10-13T05:50:22.684Z,101791.16
2022-10-13T05:52:50.021Z,101799.16
2022-10-13T05:55:17.864Z,101798.41
2022-10-13T05:57:50.653Z,101792.34
2022-10-13T06:00:18.874Z,101784.34
2022-10-13T06:03:09.036Z,101783.19
2022-10-13T06:05:36.192Z,101778.94
2022-10-13T06:08:02.681Z,101779.28
2022-10-13T06:10:29.206Z,101782.28
2022-10-13T06:12:55.615Z,101778.06
2022-10-13T06:15:27.128Z,101762.41
2022-10-13T06:17:55.960Z,101760.09
2022-10-13T06:20:22.442Z,101752.09
2022-10-13T06:22:50.277Z,101742.63
2022-10-13T06:25:16.754Z,101737.63
2022-10-13T06:27:43.509Z,101746.69
2022-10-13T06:30:10.134Z,101756.59
2022-10-13T06:32:36.713Z,101761.94
2022-10-13T06:35:03.324Z,101755.44
2022-10-13T06:37:29.765Z,101737.53
2022-10-13T06:39:56.170Z,101745.88
2022-10-13T06:42:22.921Z,101741.28
2022-10-13T06:45:08.284Z,101756.44
2022-10-13T06:47:34.688Z,101759.09
2022-10-13T06:50:01.086Z,101771.25
2022-10-13T06:52:27.481Z,101780.00
2022-10-13T06:54:53.851Z,101776.91
2022-10-13T06:57:20.258Z,101786.75
2022-10-13T06:59:46.673Z,101790.50
2022-10-13T07:02:13.109Z,101779.03
2022-10-13T07:04:39.555Z,101781.56
2022-10-13T07:07:05.948Z,101775.84
2022-10-13T07:09:32.322Z,101770.84
2022-10-13T07:11:59.142Z,101761.69
2022-10-13T07:14:28.393Z,101769.59
2022-10-13T07:16:54.798Z,101766.09
2022-10-13T07:19:21.319Z,101769.44
2022-10-13T07:21:47.976Z,101768.59
2022-10-13T07:24:14.537Z,101764.34
2022-10-13T07:26:41.105Z,101765.78
2022-10-13T07:29:07.992Z,101760.34
2022-10-13T07:31:34.462Z,101756.44
2022-10-13T07:34:01.070Z,101762.84
2022-10-13T07:36:28.107Z,101760.06
2022-10-13T07:38:54.498Z,101765.31
2022-10-13T07:41:20.909Z,101765.56
2022-10-13T07:43:47.288Z,101771.56
2022-10-13T07:46:14.052Z,101765.72
2022-10-13T07:48:40.999Z,101770.53
2022-10-13T07:51:09.842Z,101773.88
2022-10-13T07:53:36.367Z,101768.78
2022-10-13T07:56:04.960Z,101765.28
2022-10-13T07:58:31.418Z,101769.31
2022-10-13T08:01:01.712Z,101766.22
2022-10-13T08:03:29.941Z,101770.72
2022-10-13T08:05:59.273Z,101770.63
2022-10-13T08:08:26.089Z,101770.97
2022-10-13T08:13:24.924Z,101764.31
2022-10-13T08:15:51.398Z,101761.78
2022-10-13T08:18:17.783Z,101755.81
2022-10-13T08:20:46.120Z,101751.22
2022-10-13T08:23:13.334Z,101747.41
2022-10-13T08:25:48.151Z,101750.94
2022-10-13T08:28:31.224Z,101756.69
2022-10-13T08:30:57.843Z,101759.88
2022-10-13T08:33:25.809Z,101759.31
2022-10-13T08:35:52.996Z,101757.25
2022-10-13T08:38:20.008Z,101759.19
2022-10-13T08:40:48.994Z,101757.38
2022-10-13T08:43:18.727Z,101764.66
2022-10-13T08:45:46.012Z,101763.16
2022-10-13T08:48:22.124Z,101767.22
2022-10-13T08:50:52.003Z,101766.03
2022-10-13T08:53:31.071Z,101763.03
2022-10-13T08:56:07.796Z,101758.22
2022-10-13T08:58:38.188Z,101757.16
2022-10-13T09:01:14.398Z,101753.75
2022-10-13T09:03:51.561Z,101745.63
2022-10-13T09:06:28.423Z,101750.75
2022-10-13T09:08:58.530Z,101752.25
2022-10-13T09:11:36.932Z,101748.50
2022-10-13T09:14:09.147Z,101751.09
2022-10-13T09:16:37.408Z,101744.84
2022-10-13T09:19:20.858Z,101751.69
2022-10-13T09:21:48.307Z,101753.00
2022-10-13T09:24:17.658Z,101752.16
2022-10-13T09:26:45.863Z,101748.25
2022-10-13T09:29:26.235Z,101737.28
2022-10-13T09:32:12.888Z,101742.72
2022-10-13T09:34:39.993Z,101739.72
2022-10-13T09:37:16.541Z,101740.03
2022-10-13T09:39:42.962Z,101738.47
2022-10-13T09:42:21.517Z,101742.69
2022-10-13T09:44:57.459Z,101732.50
2022-10-13T09:47:26.594Z,101744.00
2022-10-13T09:50:06.637Z,101740.34
2022-10-13T09:52:34.621Z,101748.13
2022-10-13T09:55:01.603Z,101740.59
2022-10-13T09:57:43.313Z,101748.38
2022-10-13T10:00:19.551Z,101749.31
2022-10-13T10:03:02.035Z,101744.13
2022-10-13T10:05:50.694Z,101744.50
2022-10-13T10:08:33.571Z,101740.66
2022-10-13T10:11:13.637Z,101739.41
2022-10-13T10:13:40.031Z,101740.31
2022-10-13T10:16:19.156Z,101728.13
2022-10-13T10:18:57.748Z,101737.78
2022-10-13T10:21:36.823Z,101727.09
2022-10-13T10:24:35.869Z,101727.13
2022-10-13T10:27:29.624Z,101728.06
2022-10-13T10:30:04.043Z,101723.31
2022-10-13T10:32:42.868Z,101729.84
2022-10-13T10:35:32.621Z,101726.91
2022-10-13T10:38:14.046Z,101717.69
2022-10-13T10:40:56.340Z,101713.69
2022-10-13T10:43:28.862Z,101716.22
2022-10-13T10:45:57.705Z,101720.41
2022-10-13T10:48:30.817Z,101714.59
2022-10-13T10:50:57.454Z,101712.81
2022-10-13T10:53:43.513Z,101715.22
2022-10-13T10:56:25.451Z,101721.63
2022-10-13T10:59:01.710Z,101714.31
2022-10-13T11:01:38.730Z,101710.88
2022-10-13T11:04:32.657Z,101702.81
2022-10-13T11:06:59.394Z,101710.75
2022-10-13T11:09:41.043Z,101701.34
2022-10-13T11:12:19.837Z,101697.00
2022-10-13T11:15:11.994Z,101703.91
2022-10-13T11:17:40.844Z,101698.84
2022-10-13T11:20:19.756Z,101699.84
2022-10-13T11:22:58.244Z,101696.13
2022-10-13T11:25:40.981Z,101694.19
2022-10-13T11:28:22.800Z,101697.75
2022-10-13T11:30:50.377Z,101696.59
2022-10-13T11:33:36.842Z,101693.75
2022-10-13T11:36:40.981Z,101694.81
2022-10-13T11:39:28.908Z,101680.94
2022-10-13T11:42:14.723Z,101683.78
2022-10-13T11:44:59.059Z,101685.25
2022-10-13T11:47:53.960Z,101680.50
2022-10-13T11:50:35.655Z,101681.53
2022-10-13T11:53:04.955Z,101678.56
2022-10-13T11:55:50.038Z,101679.16
2022-10-13T11:58:28.659Z,101680.19
2022-10-13T12:01:06.525Z,101669.16
2022-10-13T12:03:39.093Z,101664.66
2022-10-13T12:06:36.925Z,101664.81
2022-10-13T12:09:21.954Z,101664.97
2022-10-13T12:11:57.081Z,101669.44
2022-10-13T12:14:32.386Z,101666.75
2022-10-13T12:17:01.076Z,101662.16
2022-10-13T12:19:29.974Z,101663.66
2022-10-13T12:22:00.297Z,101653.22
2022-10-13T12:24:29.791Z,101654.72
2022-10-13T12:26:57.627Z,101670.34
2022-10-13T12:29:27.379Z,101658.72
2022-10-13T12:31:55.088Z,101658.84
2022-10-13T12:34:27.361Z,101646.34
2022-10-13T12:36:59.987Z,101649.34
2022-10-13T12:39:29.171Z,101645.03
2022-10-13T12:41:57.246Z,101643.84
2022-10-13T12:44:32.070Z,101646.81
2022-10-13T12:47:03.646Z,101649.34
2022-10-13T12:49:35.569Z,101645.00
2022-10-13T12:52:09.566Z,101645.75
2022-10-13T12:54:47.092Z,101645.75
2022-10-13T12:57:37.976Z,101653.19
2022-10-13T13:00:19.876Z,101653.63
2022-10-13T13:02:58.464Z,101646.16
2022-10-13T13:05:35.803Z,101652.22
2022-10-13T13:08:04.868Z,101658.72
2022-10-13T13:10:31.655Z,101653.81
2022-10-13T13:13:14.283Z,101653.19
2022-10-13T13:15:41.439Z,101641.28
2022-10-13T13:18:26.297Z,101648.56
2022-10-13T13:20:53.976Z,101648.13
2022-10-13T13:23:21.976Z,101642.75
2022-10-13T13:26:00.101Z,101643.94
2022-10-13T13:28:32.496Z,101648.84
2022-10-13T13:31:02.967Z,101638.88
2022-10-13T13:33:29.580Z,101641.28
2022-10-13T13:35:58.377Z,101642.50
2022-10-13T13:38:24.768Z,101639.81
2022-10-13T13:40:51.201Z,101629.22
2022-10-13T13:43:18.094Z,101631.03
2022-10-13T13:45:44.553Z,101628.09
2022-10-13T13:48:12.965Z,101625.13
2022-10-13T13:50:39.730Z,101618.78
2022-10-13T13:53:06.257Z,101625.66
2022-10-13T13:55:32.996Z,101615.78
2022-10-13T13:58:00.165Z,101622.66
2022-10-13T14:00:26.683Z,101616.88
2022-10-13T14:02:55.002Z,101619.69
2022-10-13T14:05:21.425Z,101610.59
2022-10-13T14:07:47.871Z,101609.88
2022-10-13T14:10:14.566Z,101609.88
2022-10-13T14:12:41.646Z,101604.06
2022-10-13T14:15:08.900Z,101604.06
2022-10-13T14:17:35.320Z,101595.44
2022-10-13T14:20:01.805Z,101593.66
2022-10-13T14:22:28.335Z,101597.50
2022-10-13T14:24:54.749Z,101587.53
2022-10-13T14:27:21.268Z,101592.91
2022-10-13T14:29:47.647Z,101594.09
2022-10-13T14:32:15.640Z,101592.63
2022-10-13T14:34:42.098Z,101589.63
2022-10-13T14:37:08.496Z,101585.91
2022-10-13T14:39:34.897Z,101585.63
2022-10-13T14:42:01.494Z,101577.44
2022-10-13T14:44:27.905Z,101582.19
2022-10-13T14:46:54.596Z,101566.88
2022-10-13T14:49:20.982Z,101572.94
2022-10-13T14:51:47.657Z,101574.16
2022-10-13T14:54:15.979Z,101579.03
2022-10-13T14:56:42.494Z,101577.09
2022-10-13T14:59:10.928Z,101571.75
2022-10-13T15:01:38.492Z,101578.75
2022-10-13T15:04:04.959Z,101579.22
2022-10-13T15:06:32.366Z,101571.31
2022-10-13T15:08:58.854Z,101577.88
2022-10-13T15:11:26.711Z,101569.09
2022-10-13T15:13:53.710Z,101574.59
2022-10-13T15:16:22.623Z,101568.19
2022-10-13T15:18:49.791Z,101562.81
2022-10-13T15:21:16.821Z,101563.56
2022-10-13T15:23:43.659Z,101564.75
2022-10-13T15:26:12.560Z,101564.44
2022-10-13T15:28:41.337Z,101564.59
2022-10-13T15:31:10.178Z,101561.91
2022-10-13T15:33:36.635Z,101557.00
2022-10-13T15:36:03.591Z,101560.13
2022-10-13T15:38:30.939Z,101558.19
2022-10-13T15:41:00.779Z,101567.56
2022-10-13T15:43:27.909Z,101559.22
2022-10-13T15:46:02.347Z,101554.91
2022-10-13T15:48:29.074Z,101553.88
2022-10-13T15:50:55.612Z,101558.03
2022-10-13T15:53:22.222Z,101553.56
2022-10-13T15:55:48.807Z,101556.38
2022-10-13T15:58:15.725Z,101556.06
2022-10-13T16:00:42.737Z,101558.00
2022-10-13T16:03:17.632Z,101548.47
2022-10-13T16:05:45.513Z,101548.22
2022-10-13T16:08:13.220Z,101546.13
2022-10-13T16:10:41.310Z,101544.31
2022-10-13T16:13:09.256Z,101556.66
2022-10-13T16:15:35.655Z,101558.59
2022-10-13T16:18:02.197Z,101544.16
2022-10-13T16:20:34.193Z,101541.47
2022-10-13T16:23:01.308Z,101533.59
2022-10-13T16:25:27.795Z,101528.69
2022-10-13T16:27:54.225Z,101529.88
2022-10-13T16:30:20.621Z,101535.34
2022-10-13T16:32:47.024Z,101536.53
2022-10-13T16:35:13.592Z,101531.63
2022-10-13T16:37:40.054Z,101538.28
2022-10-13T16:40:07.017Z,101532.94
2022-10-13T16:42:34.831Z,101541.41
2022-10-13T16:45:01.467Z,101538.44
2022-10-13T16:47:27.928Z,101544.53
2022-10-13T16:49:54.421Z,101541.09
2022-10-13T16:52:20.913Z,101548.81
2022-10-13T16:54:47.911Z,101547.78
2022-10-13T16:57:14.381Z,101556.84
2022-10-13T16:59:40.984Z,101549.00
2022-10-13T17:02:14.245Z,101550.19
2022-10-13T17:04:41.899Z,101556.41
2022-10-13T17:07:08.489Z,101552.22
2022-10-13T17:09:34.870Z,101556.09
2022-10-13T17:12:02.188Z,101561.88
2022-10-13T17:14:28.600Z,101568.84
2022-10-13T17:16:57.731Z,101556.66
2022-10-13T17:19:24.999Z,101568.53
2022-10-13T17:21:51.369Z,101570.47
2022-10-13T17:24:17.968Z,101571.97
2022-10-13T17:26:44.386Z,101577.75
2022-10-13T17:29:10.837Z,101579.69
2022-10-13T17:31:37.927Z,101575.09
2022-10-13T17:34:05.983Z,101586.22
2022-10-13T17:36:33.906Z,101579.81
2022-10-13T17:39:09.451Z,101583.66
2022-10-13T17:41:39.139Z,101579.19
2022-10-13T17:44:05.665Z,101582.31
2022-10-13T17:46:40.308Z,101583.50
2022-10-13T17:49:10.653Z,101580.50
2022-10-13T17:51:37.187Z,101584.38
2022-10-13T17:54:05.384Z,101586.72
2022-10-13T17:56:31.981Z,101587.47
2022-10-13T17:59:02.434Z,101592.06
2022-10-13T18:01:31.760Z,101599.03
2022-10-13T18:04:04.937Z,101599.03
2022-10-13T18:06:38.508Z,101599.91
2022-10-13T18:09:14.675Z,101602.28
2022-10-13T18:11:48.504Z,101604.19
2022-10-13T18:14:17.235Z,101609.97
2022-10-13T18:16:44.454Z,101613.25
2022-10-13T18:19:12.360Z,101612.16
2022-10-13T18:21:39.085Z,101620.72
2022-10-13T18:24:05.771Z,101614.31
2022-10-13T18:26:35.611Z,101616.38
2022-10-13T18:29:03.381Z,101617.13
2022-10-13T18:31:32.565Z,101622.47
2022-10-13T18:34:02.409Z,101629.72
2022-10-13T18:36:38.235Z,101633.59
2022-10-13T18:39:16.194Z,101640.97
2022-10-13T18:41:45.279Z,101642.41
2022-10-13T18:44:11.755Z,101643.25
2022-10-13T18:46:39.452Z,101645.72
2022-10-13T18:49:07.565Z,101652.41
2022-10-13T18:51:36.802Z,101655.94
2022-10-13T18:54:05.575Z,101661.69
2022-10-13T18:56:33.587Z,101662.44
2022-10-13T18:59:01.754Z,101664.91
2022-10-13T19:01:31.387Z,101672.94
2022-10-13T19:03:58.293Z,101672.28
2022-10-13T19:06:26.945Z,101663.22
2022-10-13T19:08:56.263Z,101669.84
2022-10-13T19:11:23.833Z,101665.91
2022-10-13T19:13:51.122Z,101667.06
2022-10-13T19:16:20.995Z,101670.28
2022-10-13T19:18:48.337Z,101672.34
2022-10-13T19:21:15.047Z,101669.78
2022-10-13T19:23:42.091Z,101665.28
2022-10-13T19:26:20.129Z,101667.00
2022-10-13T19:28:47.071Z,101672.13
2022-10-13T19:31:19.765Z,101670.41
2022-10-13T19:33:47.672Z,101672.13
2022-10-13T19:36:41.894Z,101666.44
2022-10-13T19:39:21.803Z,101671.91
2022-10-13T19:41:49.722Z,101668.19
2022-10-13T19:44:17.787Z,101668.38
2022-10-13T19:46:45.207Z,101660.91
2022-10-13T19:49:13.622Z,101666.34
2022-10-13T19:51:44.168Z,101676.75
2022-10-13T19:54:13.817Z,101672.69
2022-10-13T19:56:44.477Z,101664.03
2022-10-13T19:59:10.979Z,101663.72
2022-10-13T20:01:40.944Z,101663.81
2022-10-13T20:04:13.105Z,101676.94
2022-10-13T20:06:39.775Z,101672.56
2022-10-13T20:09:06.376Z,101673.41
2022-10-13T20:11:32.866Z,101670.81
2022-10-13T20:13:59.335Z,101667.81
2022-10-13T20:16:25.894Z,101672.28
2022-10-13T20:18:56.205Z,101673.28
2022-10-13T20:21:23.637Z,101672.25
2022-10-13T20:23:52.380Z,101684.25
2022-10-13T20:26:19.517Z,101688.66
2022-10-13T20:28:48.134Z,101687.69
2022-10-13T20:31:16.842Z,101689.59
2022-10-13T20:33:43.654Z,101687.34
2022-10-13T20:36:13.447Z,101694.25
2022-10-13T20:38:39.973Z,101690.94
2022-10-13T20:41:15.424Z,101689.84
2022-10-13T20:43:41.868Z,101693.34
2022-10-13T20:46:09.130Z,101698.88
2022-10-13T20:49:05.271Z,101695.19
2022-10-13T20:51:24.558Z,101699.94
2022-10-13T20:53:51.733Z,101699.25
2022-10-13T20:56:23.714Z,101703.09
2022-10-13T20:58:51.351Z,101696.34
2022-10-13T21:01:19.118Z,101705.25
2022-10-13T21:03:46.277Z,101705.25
2022-10-13T21:06:14.326Z,101709.06
2022-10-13T21:08:43.925Z,101705.66
2022-10-13T21:11:12.352Z,101711.38
2022-10-13T21:13:40.302Z,101706.81
2022-10-13T21:16:11.450Z,101712.13
2022-10-13T21:18:38.317Z,101712.13
2022-10-13T21:21:07.898Z,101714.50
2022-10-13T21:23:34.668Z,101720.13
2022-10-13T21:26:03.454Z,101716.00
2022-10-13T21:28:31.028Z,101717.16
2022-10-13T21:31:02.373Z,101718.66
2022-10-13T21:33:28.891Z,101711.38
2022-10-13T21:35:57.717Z,101714.16
2022-10-13T21:38:24.556Z,101707.00
2022-10-13T21:40:54.026Z,101695.69
2022-10-13T21:43:20.606Z,101694.09
2022-10-13T21:45:47.225Z,101685.38
2022-10-13T21:48:13.730Z,101688.44
2022-10-13T21:50:40.167Z,101698.25
2022-10-13T21:53:06.626Z,101689.94
2022-10-13T21:55:33.101Z,101687.69
2022-10-13T21:58:05.248Z,101691.19
2022-10-13T22:00:32.645Z,101679.03
2022-10-13T22:02:59.118Z,101691.59
2022-10-13T22:05:25.643Z,101697.75
2022-10-13T22:07:52.959Z,101682.56
2022-10-13T22:10:19.417Z,101682.97
2022-10-13T22:12:45.857Z,101689.13
2022-10-13T22:15:12.304Z,101674.72
2022-10-13T22:17:38.695Z,101679.31
2022-10-13T22:20:06.019Z,101676.72
2022-10-13T22:22:32.453Z,101680.47
2022-10-13T22:24:58.842Z,101673.66
2022-10-13T22:27:27.568Z,101668.00
2022-10-13T22:29:53.950Z,101665.75
2022-10-13T22:32:20.332Z,101661.25
2022-10-13T22:34:46.720Z,101669.97
2022-10-13T22:37:13.119Z,101657.09
2022-10-13T22:39:39.597Z,101664.66
2022-10-13T22:42:08.635Z,101662.75
2022-10-13T22:44:35.014Z,101663.50
2022-10-13T22:47:01.371Z,101672.97
2022-10-13T22:49:27.871Z,101661.59
2022-10-13T22:51:54.253Z,101657.94
2022-10-13T22:54:20.634Z,101664.81
2022-10-13T22:56:47.059Z,101661.41
2022-10-13T22:59:13.868Z,101655.69
2022-10-13T23:01:40.308Z,101658.41
2022-10-13T23:04:06.697Z,101656.16
2022-10-13T23:06:34.785Z,101657.66
2022-10-13T23:09:03.996Z,101642.53
2022-10-13T23:11:30.507Z,101651.34
2022-10-13T23:13:57.120Z,101652.50
2022-10-13T23:16:25.636Z,101654.00
2022-10-13T23:18:52.867Z,101645.69
2022-10-13T23:21:25.864Z,101640.03
2022-10-13T23:24:06.259Z,101643.44
2022-10-13T23:26:34.222Z,101636.94
2022-10-13T23:29:00.928Z,101645.25
2022-10-13T23:31:28.456Z,101630.13
2022-10-13T23:33:55.496Z,101627.53
2022-10-13T23:36:24.529Z,101631.78
2022-10-13T23:38:58.531Z,101624.53
2022-10-13T23:41:26.304Z,101634.44
2022-10-13T23:43:52.728Z,101631.50
2022-10-13T23:46:19.400Z,101629.31
2022-10-13T23:48:45.828Z,101625.56
2022-10-13T23:51:16.358Z,101630.56
2022-10-13T23:53:43.201Z,101640.03
2022-10-13T23:56:11.137Z,101641.94
2022-10-13T23:58:39.552Z,101640.44
